createdAt,value
2022-12-08T00:00:46.774Z,2.6
2022-12-08T00:05:48.888Z,2.5
2022-12-08T00:10:51.941Z,2.4
2022-12-08T00:15:53.909Z,2.3
2022-12-08T00:20:56.027Z,2.3
2022-12-08T00:25:57.980Z,2.4
2022-12-08T00:30:59.971Z,2.3
2022-12-08T00:36:01.948Z,2.3
2022-12-08T00:41:04.169Z,2.4
2022-12-08T00:46:06.503Z,2.5
2022-12-08T00:51:08.676Z,2.4
2022-12-08T00:56:10.709Z,2.4
2022-12-08T01:01:12.969Z,2.3
2022-12-08T01:06:15.012Z,2.2
2022-12-08T01:11:18.361Z,2.1
2022-12-08T01:16:20.649Z,2.1
2022-12-08T01:21:22.807Z,2.1
2022-12-08T01:26:24.809Z,2.1
2022-12-08T01:31:27.240Z,2.1
2022-12-08T01:36:29.302Z,2.1
2022-12-08T01:41:31.269Z,2.1
2022-12-08T01:46:33.449Z,1.9
2022-12-08T01:51:35.596Z,2
2022-12-08T01:56:37.662Z,2
2022-12-08T02:01:40.547Z,2.1
2022-12-08T02:06:42.622Z,2
2022-12-08T02:11:44.584Z,2.2
2022-12-08T02:16:46.526Z,2.2
2022-12-08T02:21:48.486Z,2
2022-12-08T02:26:50.520Z,1.7
2022-12-08T02:31:52.557Z,1.4
2022-12-08T02:36:54.545Z,1.4
2022-12-08T02:41:56.799Z,1.5
2022-12-08T02:46:58.826Z,1.5
2022-12-08T02:52:00.964Z,1.6
2022-12-08T02:57:03.138Z,1.7
2022-12-08T03:02:05.265Z,1.7
2022-12-08T03:07:07.366Z,1.6
2022-12-08T03:12:09.324Z,1.6
2022-12-08T03:17:11.233Z,1.7
2022-12-08T03:22:13.301Z,1.9
2022-12-08T03:27:15.259Z,2
2022-12-08T03:32:17.523Z,2.1
2022-12-08T03:37:19.475Z,2.2
2022-12-08T03:42:21.473Z,2.3
2022-12-08T03:47:23.421Z,2.1
2022-12-08T03:52:25.697Z,2
2022-12-08T03:57:27.817Z,1.9
2022-12-08T04:02:31.153Z,1.7
2022-12-08T04:07:33.223Z,1.6
2022-12-08T04:12:35.233Z,1.6
2022-12-08T04:17:37.360Z,1.6
2022-12-08T04:22:40.430Z,1.6
2022-12-08T04:27:42.604Z,1.6
2022-12-08T04:32:49.287Z,1.9
2022-12-08T04:37:51.286Z,1.8
2022-12-08T04:42:53.347Z,2
2022-12-08T04:47:55.792Z,2.2
2022-12-08T04:52:58.469Z,2.2
2022-12-08T04:58:00.630Z,2.2
2022-12-08T05:03:03.165Z,2.3
2022-12-08T05:08:05.770Z,2.5
2022-12-08T05:13:07.993Z,2.5
2022-12-08T05:18:09.993Z,2.7
2022-12-08T05:23:11.972Z,2.7
2022-12-08T05:28:44.428Z,2.9
2022-12-08T05:33:16.375Z,2.8
2022-12-08T05:38:18.373Z,2.9
2022-12-08T05:43:20.399Z,2.9
2022-12-08T05:48:22.426Z,2.9
2022-12-08T05:53:24.551Z,2.8
2022-12-08T05:58:26.594Z,2.7
2022-12-08T06:03:36.518Z,2.8
2022-12-08T06:08:38.646Z,2.7
2022-12-08T06:13:42.083Z,2.7
2022-12-08T06:18:44.472Z,2.6
2022-12-08T06:23:46.488Z,2.6
2022-12-08T06:28:48.448Z,2.4
2022-12-08T06:33:50.412Z,2.3
2022-12-08T06:38:53.099Z,2.3
2022-12-08T06:43:55.025Z,2.3
2022-12-08T06:48:57.804Z,2.4
2022-12-08T06:54:00.074Z,2.3
2022-12-08T06:59:02.261Z,2.4
2022-12-08T07:04:04.167Z,2.3
2022-12-08T07:09:06.089Z,2.3
2022-12-08T07:14:08.053Z,2.4
2022-12-08T07:19:10.104Z,2.4
2022-12-08T07:24:12.075Z,2.4
2022-12-08T07:29:16.939Z,2.6
2022-12-08T07:34:25.871Z,2.6
2022-12-08T07:39:27.983Z,2.6
2022-12-08T07:44:30.241Z,2.8
2022-12-08T07:49:32.230Z,3
2022-12-08T07:54:34.621Z,3.1
2022-12-08T07:59:36.625Z,3.3
2022-12-08T08:04:39.802Z,3.3
2022-12-08T08:09:41.900Z,3.3
2022-12-08T08:14:43.999Z,3.5
2022-12-08T08:19:45.963Z,3.5
2022-12-08T08:24:49.020Z,3.8
2022-12-08T08:29:51.275Z,4
2022-12-08T08:34:53.256Z,4.1
2022-12-08T08:39:55.199Z,4.3
2022-12-08T08:44:57.290Z,4.5
2022-12-08T08:49:59.343Z,4.5
2022-12-08T08:55:01.509Z,4.5
2022-12-08T09:00:05.244Z,5
2022-12-08T09:05:08.288Z,5
2022-12-08T09:10:10.903Z,5.1
2022-12-08T09:15:12.900Z,5
2022-12-08T09:20:14.865Z,5.4
2022-12-08T09:30:17.375Z,6.8
2022-12-08T09:35:19.385Z,6.5
2022-12-08T09:40:21.491Z,6.2
2022-12-08T09:45:23.594Z,5.8
2022-12-08T09:50:25.626Z,5.9
2022-12-08T09:55:27.943Z,6
2022-12-08T10:00:29.959Z,6.3
2022-12-08T10:05:32.351Z,10.2
2022-12-08T10:15:34.833Z,12.2
2022-12-08T10:20:36.902Z,10.8
2022-12-08T10:25:38.787Z,9.9
2022-12-08T10:30:40.753Z,10
2022-12-08T10:35:42.732Z,12.5
2022-12-08T10:40:47.812Z,14.5
2022-12-08T10:45:49.802Z,14.3
2022-12-08T10:50:53.253Z,12.4
2022-12-08T10:55:55.245Z,12.4
2022-12-08T11:00:57.530Z,13.1
2022-12-08T11:06:01.642Z,13.1
2022-12-08T11:11:01.826Z,12
2022-12-08T11:16:04.001Z,11.5
2022-12-08T11:21:06.094Z,11.1
2022-12-08T11:26:08.051Z,10.9
2022-12-08T11:31:10.347Z,10.8
2022-12-08T11:36:12.631Z,14
2022-12-08T11:41:18.500Z,20.4
2022-12-08T11:46:20.626Z,20.3
2022-12-08T11:51:22.739Z,21
2022-12-08T12:01:25.307Z,20.6
2022-12-08T12:06:57.524Z,13.9
2022-12-08T12:11:29.495Z,14
2022-12-08T12:16:31.984Z,11.7
2022-12-08T12:21:34.355Z,11.6
2022-12-08T12:26:36.216Z,10.5
2022-12-08T12:31:38.147Z,9.9
2022-12-08T12:36:40.219Z,10.4
2022-12-08T12:41:42.189Z,10.3
2022-12-08T12:51:44.594Z,9.1
2022-12-08T12:56:46.846Z,8.2
2022-12-08T13:01:49.365Z,8
2022-12-08T13:06:51.443Z,8
2022-12-08T13:11:53.477Z,7.9
2022-12-08T13:16:55.647Z,7.9
2022-12-08T13:21:57.820Z,7.8
2022-12-08T13:27:00.317Z,7.9
2022-12-08T13:32:02.433Z,7.8
2022-12-08T13:37:04.478Z,7.7
2022-12-08T13:48:13.984Z,6.8
2022-12-08T13:53:41.833Z,6.6
2022-12-08T13:57:16.742Z,6.4
2022-12-08T14:02:19.766Z,6.4
2022-12-08T14:07:21.856Z,6.3
2022-12-08T14:12:23.918Z,6.1
2022-12-08T14:17:26.044Z,6
2022-12-08T14:22:28.036Z,5.9
2022-12-08T14:27:29.988Z,5.8
2022-12-08T14:32:31.967Z,5.8
2022-12-08T14:37:33.987Z,5.7
2022-12-08T14:42:36.007Z,5.5
2022-12-08T14:47:38.077Z,5.4
2022-12-08T14:52:40.081Z,5.4
2022-12-08T14:57:42.361Z,5.3
2022-12-08T15:02:44.501Z,5.2
2022-12-08T15:07:46.674Z,5.1
2022-12-08T15:12:48.871Z,5.1
2022-12-08T15:17:50.978Z,4.9
2022-12-08T15:22:53.041Z,4.8
2022-12-08T15:27:55.179Z,4.8
2022-12-08T15:32:57.325Z,4.7
2022-12-08T15:37:59.665Z,4.7
2022-12-08T15:43:01.996Z,4.7
2022-12-08T15:48:04.132Z,4.6
2022-12-08T15:53:06.171Z,4.6
2022-12-08T15:58:57.779Z,4.7
2022-12-08T16:05:11.905Z,4.7
2022-12-08T16:09:10.999Z,4.7
2022-12-08T16:14:15.047Z,4.7
2022-12-08T16:18:31.261Z,4.6
2022-12-08T16:23:46.325Z,4.5
2022-12-08T16:28:56.630Z,4.5
2022-12-08T16:33:38.557Z,4.4
2022-12-08T16:38:40.713Z,4.5
2022-12-08T16:43:42.911Z,4.5
2022-12-08T16:48:44.890Z,4.6
2022-12-08T16:53:47.038Z,4.6
2022-12-08T16:58:49.048Z,4.6
2022-12-08T17:04:32.971Z,4.5
2022-12-08T17:08:55.396Z,4.5
2022-12-08T17:13:57.531Z,4.5
2022-12-08T17:18:59.646Z,4.4
2022-12-08T17:24:01.740Z,4.5
2022-12-08T17:29:03.881Z,4.6
2022-12-08T17:34:07.033Z,4.6
2022-12-08T17:39:18.896Z,4.7
2022-12-08T17:44:11.136Z,4.7
2022-12-08T17:49:13.463Z,4.7
2022-12-08T17:54:15.429Z,4.7
2022-12-08T17:59:17.494Z,4.6
2022-12-08T18:04:19.613Z,4.5
2022-12-08T18:09:22.021Z,4.4
2022-12-08T18:14:24.253Z,4.4
2022-12-08T18:19:26.448Z,4.3
2022-12-08T18:24:28.663Z,4.5
2022-12-08T18:29:30.764Z,4.5
2022-12-08T18:34:32.805Z,4.4
2022-12-08T18:39:34.826Z,4.4
2022-12-08T18:44:36.847Z,4.4
2022-12-08T18:49:39.431Z,4.3
2022-12-08T18:55:08.483Z,4.1
2022-12-08T18:59:50.678Z,4.1
2022-12-08T19:04:52.936Z,4
2022-12-08T19:09:55.076Z,3.9
2022-12-08T19:14:59.366Z,3.9
2022-12-08T19:20:01.907Z,3.9
2022-12-08T19:25:04.060Z,4
2022-12-08T19:30:07.369Z,4.1
2022-12-08T19:35:09.951Z,4.1
2022-12-08T19:40:12.522Z,4.1
2022-12-08T19:45:14.642Z,4.1
2022-12-08T19:55:17.935Z,4
2022-12-08T20:00:20.427Z,4
2022-12-08T20:05:22.578Z,4
2022-12-08T20:10:24.688Z,4
2022-12-08T20:15:26.942Z,4
2022-12-08T20:20:29.180Z,4
2022-12-08T20:25:31.244Z,3.9
2022-12-08T20:30:33.446Z,3.9
2022-12-08T20:35:35.600Z,3.8
2022-12-08T20:40:37.637Z,3.8
2022-12-08T20:45:39.731Z,3.9
2022-12-08T20:50:42.305Z,3.9
2022-12-08T20:55:45.130Z,4
2022-12-08T21:00:55.094Z,4
2022-12-08T21:05:56.274Z,4
2022-12-08T21:10:59.052Z,4
2022-12-08T21:16:02.354Z,4
2022-12-08T21:21:05.557Z,4
2022-12-08T21:26:08.409Z,4
2022-12-08T21:31:11.032Z,4
2022-12-08T21:36:14.033Z,3.9
2022-12-08T21:41:16.880Z,3.9
2022-12-08T21:46:19.931Z,3.9
2022-12-08T21:51:23.081Z,3.9
2022-12-08T21:56:25.780Z,3.9
2022-12-08T22:01:29.021Z,3.8
2022-12-08T22:06:32.219Z,3.7
2022-12-08T22:11:35.375Z,3.6
2022-12-08T22:16:38.649Z,3.5
2022-12-08T22:21:42.003Z,3.6
2022-12-08T22:26:44.252Z,3.6
2022-12-08T22:31:47.394Z,3.9
2022-12-08T22:36:50.846Z,3.9
2022-12-08T22:41:53.659Z,3.9
2022-12-08T22:46:56.178Z,3.9
2022-12-08T22:51:59.430Z,3.5
2022-12-08T22:57:01.916Z,3.5
2022-12-08T23:02:04.645Z,3.6
2022-12-08T23:07:06.952Z,3.5
2022-12-08T23:12:09.601Z,3.8
2022-12-08T23:17:13.055Z,4
2022-12-08T23:22:16.042Z,3.9
2022-12-08T23:27:18.258Z,3.9
2022-12-08T23:32:21.027Z,3.8
2022-12-08T23:37:23.634Z,3.8
2022-12-08T23:42:26.252Z,3.9
2022-12-08T23:47:28.982Z,3.9
2022-12-08T23:52:31.650Z,3.9
2022-12-08T23:57:33.990Z,4
